Time;durP1;ratioP1;P1;durP2;ratioP2;P2;SDS_P1;SDS_P2;PMS_P1;PMS_P2;Temp;Humidity;BMP_temperature;BMP_pressure;BME280_temperature;BME280_humidity;BME280_pressure;Samples;Min_cycle;Max_cycle;Signal;HPM_P1;HPM_P2
2022/04/04 00:00:07;;;;;;;;;;;;;;;;;;348791;28;809;-70
2022/04/04 00:00:17;;;;;;;;;;;;;;;;;;348719;28;909;-70
2022/04/04 00:00:27;;;;;;;;;;;;;;;;;;348329;28;1898;-70
2022/04/04 00:00:37;;;;;;;;;;;;;;;;;;348810;28;790;-70
2022/04/04 00:00:47;;;;;;;;;;;;;;;;;;348785;28;860;-70
2022/04/04 00:00:58;;;;;;;;;;;;;;;;;;348671;28;891;-70
2022/04/04 00:01:08;;;;;;;;;;;;;;;;;;348691;28;1003;-70
2022/04/04 00:01:18;;;;;;;;;;;;;;;;;;348738;28;782;-70
2022/04/04 00:01:29;;;;;;;;;;;;;;;;;;348712;28;979;-70
2022/04/04 00:01:39;;;;;;;;;;;;;;;;;;348708;28;984;-70
2022/04/04 00:01:50;;;;;;;;;;;;;;;;;;348749;28;844;-70
2022/04/04 00:02:03;;;;;;;;;;;;;;;;;;348712;28;937;-70
2022/04/04 00:02:14;;;;;;;;;;;;;;;;;;348756;28;976;-71
2022/04/04 00:02:24;;;;;;;;;;;;;;;;;;348754;28;825;-70
2022/04/04 00:02:34;;;;;;;;;;;;;;;;;;348730;28;909;-70
2022/04/04 00:02:45;;;;;;;;;;;;;;;;;;348763;28;1035;-70
2022/04/04 00:02:55;;;;;;;;;;;;;;;;;;348674;28;1312;-70
2022/04/04 00:03:05;;;;;;;;;;;;;;;;;;348744;28;987;-70
2022/04/04 00:03:15;;;;;;;;;;;;;;;;;;348721;28;932;-70
2022/04/04 00:03:26;;;;;;;;;;;;;;;;;;348689;28;1024;-70
2022/04/04 00:03:36;;;;;;;;;;;;;;;;;;348748;28;935;-70
2022/04/04 00:03:46;;;;;;;;;;;;;;;;;;348701;28;912;-70
2022/04/04 00:03:57;;;;;;;;;;;;;;;;;;348687;28;940;-70
2022/04/04 00:04:07;;;;;;;;;;;;;;;;;;348721;28;1130;-70
2022/04/04 00:04:17;;;;;;;;;;;;;;;;;;348729;28;1047;-70
2022/04/04 00:04:27;;;;;;;;;;;;;;;;;;348763;28;991;-70
2022/04/04 00:04:38;;;;;;;;;;;;;;;;;;348781;28;845;-70
2022/04/04 00:04:48;;;;;;;;;;;;;;;;;;348712;28;983;-70
2022/04/04 00:04:58;;;;;;;;;;;;;;;;;;348711;28;940;-70
2022/04/04 00:05:10;;;;;;;;;;;;;;;;;;348741;28;971;-70
2022/04/04 00:05:21;;;;;;;;;;;;;;;;;;348689;28;940;-70
2022/04/04 00:05:31;;;;;;;;;;;;;;;;;;348771;28;928;-70
2022/04/04 00:05:41;;;;;;;;;;;;;;;;;;348716;28;917;-70
2022/04/04 00:05:51;;;;;;;;;;;;;;;;;;348696;28;1015;-70
2022/04/04 00:06:02;;;;;;;;;;;;;;;;;;348540;28;1616;-70
2022/04/04 00:06:12;;;;;;;;;;;;;;;;;;348343;28;1717;-70
2022/04/04 00:06:22;;;;;;;;;;;;;;;;;;348753;28;968;-70
2022/04/04 00:06:33;;;;;;;;;;;;;;;;;;348620;28;1134;-70
2022/04/04 00:06:44;;;;;;;;;;;;;;;;;;348730;28;995;-70
2022/04/04 00:06:54;;;;;;;;;;;;;;;;;;348453;28;1912;-70
2022/04/04 00:07:04;;;;;;;;;;;;;;;;;;348779;28;806;-70
2022/04/04 00:07:15;;;;;;;;;;;;;;;;;;348740;28;1596;-70
2022/04/04 00:07:25;;;;;;;;;;;;;;;;;;348396;28;1506;-70
2022/04/04 00:07:35;;;;;;;;;;;;;;;;;;348657;28;1500;-70
2022/04/04 00:07:46;;;;;;;;;;;;;;;;;;348726;28;928;-70
2022/04/04 00:07:56;;;;;;;;;;;;;;;;;;348678;28;933;-70
2022/04/04 00:08:06;;;;;;;;;;;;;;;;;;348739;28;979;-70
2022/04/04 00:08:17;;;;;;;;;;;;;;;;;;348710;28;1023;-70
2022/04/04 00:08:27;;;;;;;;;;;;;;;;;;348737;28;987;-70
2022/04/04 00:08:37;;;;;;;;;;;;;;;;;;348750;28;913;-70
2022/04/04 00:08:48;;;;;;;;;;;;;;;;;;348736;28;983;-70
2022/04/04 00:08:58;;;;;;;;;;;;;;;;;;348786;28;829;-70
2022/04/04 00:09:08;;;;;;;;;;;;;;;;;;348615;28;1161;-70
2022/04/04 00:09:18;;;;;;;;;;;;;;;;;;348706;28;1091;-70
2022/04/04 00:09:29;;;;;;;;;;;;;;;;;;348730;28;896;-70
2022/04/04 00:09:40;;;;;;;;;;;;;;;;;;348762;28;884;-70
2022/04/04 00:09:50;;;;;;;;;;;;;;;;;;348785;28;869;-70
2022/04/04 00:10:01;;;;;;;;;;;;;;;;;;348632;28;913;-70
2022/04/04 00:10:11;;;;;;;;;;;;;;;;;;348764;28;899;-70
2022/04/04 00:10:21;;;;;;;;;;;;;;;;;;348744;28;944;-70
2022/04/04 00:10:32;;;;;;;;;;;;;;;;;;348691;28;928;-70
2022/04/04 00:10:42;;;;;;;;;;;;;;;;;;348384;28;1894;-70
2022/04/04 00:10:52;;;;;;;;;;;;;;;;;;348707;28;1775;-70
2022/04/04 00:11:03;;;;;;;;;;;;;;;;;;348681;28;955;-70
2022/04/04 00:11:13;;;;;;;;;;;;;;;;;;348752;28;999;-70
2022/04/04 00:11:23;;;;;;;;;;;;;;;;;;348727;28;916;-70
2022/04/04 00:11:33;;;;;;;;;;;;;;;;;;348621;28;1190;-70
2022/04/04 00:11:44;;;;;;;;;;;;;;;;;;348678;28;976;-70
2022/04/04 00:11:54;;;;;;;;;;;;;;;;;;348786;28;786;-70
2022/04/04 00:12:04;;;;;;;;;;;;;;;;;;348350;28;1827;-70
2022/04/04 00:12:15;;;;;;;;;;;;;;;;;;348734;28;929;-70
2022/04/04 00:12:25;;;;;;;;;;;;;;;;;;348754;28;904;-70
2022/04/04 00:12:36;;;;;;;;;;;;;;;;;;348451;28;1790;-70
2022/04/04 00:12:46;;;;;;;;;;;;;;;;;;348637;28;1748;-70
2022/04/04 00:12:56;;;;;;;;;;;;;;;;;;348737;28;770;-70
2022/04/04 00:13:06;;;;;;;;;;;;;;;;;;348683;28;964;-70
2022/04/04 00:13:16;;;;;;;;;;;;;;;;;;348747;28;837;-70
2022/04/04 00:13:27;;;;;;;;;;;;;;;;;;348584;28;924;-70
2022/04/04 00:13:37;;;;;;;;;;;;;;;;;;348466;28;912;-70
2022/04/04 00:13:47;;;;;;;;;;;;;;;;;;348727;28;992;-70
2022/04/04 00:13:58;;;;;;;;;;;;;;;;;;348747;28;952;-70
2022/04/04 00:14:08;;;;;;;;;;;;;;;;;;348661;28;940;-70
2022/04/04 00:14:18;;;;;;;;;;;;;;;;;;348715;28;952;-70
2022/04/04 00:14:28;;;;;;;;;;;;;;;;;;348407;28;1710;-70
2022/04/04 00:14:38;;;;;;;;;;;;;;;;;;348756;28;783;-70
2022/04/04 00:14:49;;;;;;;;;;;;;;;;;;348354;28;1820;-70
2022/04/04 00:14:59;;;;;;;;;;;;;;;;;;348727;28;928;-70
2022/04/04 00:15:09;;;;;;;;;;;;;;;;;;348596;28;1810;-70
2022/04/04 00:15:20;;;;;;;;;;;;;;;;;;348754;28;971;-70
2022/04/04 00:15:31;;;;;;;;;;;;;;;;;;348746;28;962;-70
2022/04/04 00:15:41;;;;;;;;;;;;;;;;;;348709;28;933;-70
2022/04/04 00:15:51;;;;;;;;;;;;;;;;;;348622;28;1694;-70
2022/04/04 00:16:02;;;;;;;;;;;;;;;;;;348733;28;963;-70
2022/04/04 00:16:12;;;;;;;;;;;;;;;;;;348659;28;924;-70
2022/04/04 00:16:22;;;;;;;;;;;;;;;;;;348678;28;937;-70
2022/04/04 00:16:32;;;;;;;;;;;;;;;;;;348598;28;1762;-70
2022/04/04 00:16:43;;;;;;;;;;;;;;;;;;348715;28;932;-70
2022/04/04 00:16:53;;;;;;;;;;;;;;;;;;348271;28;1823;-70
2022/04/04 00:17:04;;;;;;;;;;;;;;;;;;348650;28;1724;-70
2022/04/04 00:17:14;;;;;;;;;;;;;;;;;;348734;28;967;-70
2022/04/04 00:17:24;;;;;;;;;;;;;;;;;;348752;28;774;-70
2022/04/04 00:17:35;;;;;;;;;;;;;;;;;;348653;28;1082;-70
2022/04/04 00:17:45;;;;;;;;;;;;;;;;;;348708;28;953;-70
2022/04/04 00:17:55;;;;;;;;;;;;;;;;;;348763;28;766;-70
2022/04/04 00:18:12;;;;;;;;;;;;;;;;;;348729;28;916;-70
2022/04/04 00:18:23;;;;;;;;;;;;;;;;;;348334;28;1845;-70
2022/04/04 00:18:34;;;;;;;;;;;;;;;;;;348751;28;844;-70
2022/04/04 00:18:44;;;;;;;;;;;;;;;;;;348689;28;921;-70
2022/04/04 00:18:54;;;;;;;;;;;;;;;;;;348635;28;1003;-70
2022/04/04 00:19:06;;;;;;;;;;;;;;;;;;348705;28;904;-70
2022/04/04 00:19:16;;;;;;;;;;;;;;;;;;348698;28;988;-70
2022/04/04 00:19:27;;;;;;;;;;;;;;;;;;348696;28;984;-70
2022/04/04 00:19:37;;;;;;;;;;;;;;;;;;348661;28;920;-70
2022/04/04 00:19:47;;;;;;;;;;;;;;;;;;348588;28;1239;-70
2022/04/04 00:19:58;;;;;;;;;;;;;;;;;;348745;28;1084;-70
2022/04/04 00:20:10;;;;;;;;;;;;;;;;;;348686;28;1058;-70
2022/04/04 00:20:20;;;;;;;;;;;;;;;;;;348688;28;980;-70
2022/04/04 00:20:30;;;;;;;;;;;;;;;;;;348607;28;1906;-70
2022/04/04 00:20:40;;;;;;;;;;;;;;;;;;348517;28;1871;-70
2022/04/04 00:20:51;;;;;;;;;;;;;;;;;;348564;28;1580;-70
2022/04/04 00:21:01;;;;;;;;;;;;;;;;;;348512;28;1720;-70
2022/04/04 00:21:11;;;;;;;;;;;;;;;;;;348458;28;1692;-70
2022/04/04 00:21:22;;;;;;;;;;;;;;;;;;348737;28;976;-70
2022/04/04 00:21:32;;;;;;;;;;;;;;;;;;348731;28;940;-70
2022/04/04 00:21:42;;;;;;;;;;;;;;;;;;348721;28;757;-70
2022/04/04 00:21:52;;;;;;;;;;;;;;;;;;348743;28;880;-70
2022/04/04 00:22:03;;;;;;;;;;;;;;;;;;348710;28;941;-70
2022/04/04 00:22:13;;;;;;;;;;;;;;;;;;348657;28;945;-70
2022/04/04 00:22:23;;;;;;;;;;;;;;;;;;348728;28;854;-70
2022/04/04 00:22:34;;;;;;;;;;;;;;;;;;348703;28;972;-70
2022/04/04 00:22:44;;;;;;;;;;;;;;;;;;348675;28;1008;-70
2022/04/04 00:22:54;;;;;;;;;;;;;;;;;;348673;28;979;-70
2022/04/04 00:23:05;;;;;;;;;;;;;;;;;;348726;28;921;-70
2022/04/04 00:23:16;;;;;;;;;;;;;;;;;;348430;28;1779;-70
2022/04/04 00:23:26;;;;;;;;;;;;;;;;;;348587;28;1753;-70
2022/04/04 00:23:36;;;;;;;;;;;;;;;;;;348481;28;1794;-70
2022/04/04 00:23:47;;;;;;;;;;;;;;;;;;348402;28;1771;-70
2022/04/04 00:23:57;;;;;;;;;;;;;;;;;;348643;28;1199;-70
2022/04/04 00:24:08;;;;;;;;;;;;;;;;;;348486;28;1776;-70
2022/04/04 00:24:18;;;;;;;;;;;;;;;;;;348740;28;857;-70
2022/04/04 00:24:28;;;;;;;;;;;;;;;;;;348736;28;936;-70
2022/04/04 00:24:38;;;;;;;;;;;;;;;;;;348586;28;1568;-70
2022/04/04 00:24:49;;;;;;;;;;;;;;;;;;348632;28;932;-70
2022/04/04 00:24:59;;;;;;;;;;;;;;;;;;348736;28;976;-70
2022/04/04 00:25:09;;;;;;;;;;;;;;;;;;348688;28;967;-70
2022/04/04 00:25:20;;;;;;;;;;;;;;;;;;348167;28;1689;-70
2022/04/04 00:25:30;;;;;;;;;;;;;;;;;;348486;28;1679;-70
2022/04/04 00:25:40;;;;;;;;;;;;;;;;;;348297;28;1771;-70
2022/04/04 00:25:51;;;;;;;;;;;;;;;;;;348661;28;987;-70
2022/04/04 00:26:03;;;;;;;;;;;;;;;;;;348754;28;940;-70
2022/04/04 00:26:13;;;;;;;;;;;;;;;;;;348707;28;1163;-70
2022/04/04 00:26:24;;;;;;;;;;;;;;;;;;348712;28;866;-70
2022/04/04 00:26:34;;;;;;;;;;;;;;;;;;349708;28;1275;-70
2022/04/04 00:26:44;;;;;;;;;;;;;;;;;;350006;28;1031;-70
2022/04/04 00:26:55;;;;;;;;;;;;;;;;;;349277;28;1495;-70
2022/04/04 00:27:05;;;;;;;;;;;;;;;;;;348303;28;1771;-70
2022/04/04 00:27:15;;;;;;;;;;;;;;;;;;348574;28;1728;-70
2022/04/04 00:27:25;;;;;;;;;;;;;;;;;;348501;28;1728;-70
2022/04/04 00:27:36;;;;;;;;;;;;;;;;;;348649;28;1075;-70
2022/04/04 00:27:46;;;;;;;;;;;;;;;;;;348759;28;920;-70
2022/04/04 00:27:56;;;;;;;;;;;;;;;;;;348628;28;1096;-70
2022/04/04 00:28:07;;;;;;;;;;;;;;;;;;348922;28;996;-70
2022/04/04 00:28:17;;;;;;;;;;;;;;;;;;348746;28;964;-70
2022/04/04 00:28:27;;;;;;;;;;;;;;;;;;348653;28;921;-70
2022/04/04 00:28:37;;;;;;;;;;;;;;;;;;348710;28;979;-70
2022/04/04 00:28:49;;;;;;;;;;;;;;;;;;348692;28;845;-70
2022/04/04 00:28:59;;;;;;;;;;;;;;;;;;348676;28;952;-70
2022/04/04 00:29:09;;;;;;;;;;;;;;;;;;348740;28;822;-70
2022/04/04 00:29:20;;;;;;;;;;;;;;;;;;348710;28;916;-70
2022/04/04 00:29:30;;;;;;;;;;;;;;;;;;348744;28;991;-70
2022/04/04 00:29:41;;;;;;;;;;;;;;;;;;348546;28;1840;-70
2022/04/04 00:29:51;;;;;;;;;;;;;;;;;;348634;28;941;-70
2022/04/04 00:30:02;;;;;;;;;;;;;;;;;;348676;28;1051;-70
2022/04/04 00:30:12;;;;;;;;;;;;;;;;;;348742;28;790;-70
2022/04/04 00:30:23;;;;;;;;;;;;;;;;;;348709;28;913;-70
2022/04/04 00:30:33;;;;;;;;;;;;;;;;;;348716;28;979;-70
2022/04/04 00:30:43;;;;;;;;;;;;;;;;;;348672;28;976;-70
2022/04/04 00:30:53;;;;;;;;;;;;;;;;;;348638;28;909;-69
2022/04/04 00:31:04;;;;;;;;;;;;;;;;;;348703;28;876;-70
2022/04/04 00:31:14;;;;;;;;;;;;;;;;;;348707;28;949;-70
2022/04/04 00:31:24;;;;;;;;;;;;;;;;;;348723;28;853;-70
2022/04/04 00:31:34;;;;;;;;;;;;;;;;;;348433;28;1874;-71
2022/04/04 00:31:44;;;;;;;;;;;;;;;;;;348654;28;1816;-70
2022/04/04 00:31:55;;;;;;;;;;;;;;;;;;348698;28;937;-70
2022/04/04 00:32:05;;;;;;;;;;;;;;;;;;348555;28;1719;-70
2022/04/04 00:32:15;;;;;;;;;;;;;;;;;;348575;28;1606;-70
2022/04/04 00:32:26;;;;;;;;;;;;;;;;;;348668;28;900;-70
2022/04/04 00:32:37;;;;;;;;;;;;;;;;;;348712;28;873;-70
2022/04/04 00:32:47;;;;;;;;;;;;;;;;;;348698;28;948;-70
2022/04/04 00:32:57;;;;;;;;;;;;;;;;;;348247;28;1574;-70
2022/04/04 00:33:08;;;;;;;;;;;;;;;;;;348709;28;905;-70
2022/04/04 00:33:18;;;;;;;;;;;;;;;;;;348700;28;983;-70
2022/04/04 00:33:28;;;;;;;;;;;;;;;;;;348742;28;975;-70
2022/04/04 00:33:38;;;;;;;;;;;;;;;;;;348686;28;1079;-70
2022/04/04 00:33:48;;;;;;;;;;;;;;;;;;348744;28;837;-70
2022/04/04 00:33:59;;;;;;;;;;;;;;;;;;348658;28;996;-70
2022/04/04 00:34:09;;;;;;;;;;;;;;;;;;348631;28;921;-70
2022/04/04 00:34:19;;;;;;;;;;;;;;;;;;348732;28;849;-70
2022/04/04 00:34:30;;;;;;;;;;;;;;;;;;348517;28;1841;-70
2022/04/04 00:34:40;;;;;;;;;;;;;;;;;;348708;28;904;-70
2022/04/04 00:34:50;;;;;;;;;;;;;;;;;;348683;28;1087;-70
2022/04/04 00:35:00;;;;;;;;;;;;;;;;;;348632;28;841;-70
2022/04/04 00:35:10;;;;;;;;;;;;;;;;;;348698;28;1016;-70
2022/04/04 00:35:21;;;;;;;;;;;;;;;;;;348738;28;916;-70
2022/04/04 00:35:31;;;;;;;;;;;;;;;;;;348713;28;928;-70
2022/04/04 00:35:41;;;;;;;;;;;;;;;;;;348725;28;833;-70
2022/04/04 00:35:52;;;;;;;;;;;;;;;;;;348729;28;796;-70
2022/04/04 00:36:02;;;;;;;;;;;;;;;;;;348676;28;933;-70
2022/04/04 00:36:13;;;;;;;;;;;;;;;;;;348648;28;999;-70
2022/04/04 00:36:23;;;;;;;;;;;;;;;;;;348786;28;766;-70
2022/04/04 00:36:33;;;;;;;;;;;;;;;;;;348435;28;1925;-70
2022/04/04 00:36:44;;;;;;;;;;;;;;;;;;348581;28;1708;-69
2022/04/04 00:36:54;;;;;;;;;;;;;;;;;;348718;28;940;-70
2022/04/04 00:37:04;;;;;;;;;;;;;;;;;;348662;28;782;-70
2022/04/04 00:37:14;;;;;;;;;;;;;;;;;;348621;28;1797;-70
2022/04/04 00:37:25;;;;;;;;;;;;;;;;;;348677;28;984;-70
2022/04/04 00:37:37;;;;;;;;;;;;;;;;;;348668;28;916;-70
2022/04/04 00:37:47;;;;;;;;;;;;;;;;;;348601;28;1635;-70
2022/04/04 00:37:58;;;;;;;;;;;;;;;;;;348523;28;1823;-70
2022/04/04 00:38:10;;;;;;;;;;;;;;;;;;348686;28;913;-70
2022/04/04 00:38:22;;;;;;;;;;;;;;;;;;348661;28;869;-70
2022/04/04 00:38:32;;;;;;;;;;;;;;;;;;348691;28;814;-70
2022/04/04 00:38:42;;;;;;;;;;;;;;;;;;348702;28;913;-70
2022/04/04 00:38:53;;;;;;;;;;;;;;;;;;348754;28;809;-70
2022/04/04 00:39:03;;;;;;;;;;;;;;;;;;348669;28;987;-70
2022/04/04 00:39:19;;;;;;;;;;;;;;;;;;348643;28;873;-70
2022/04/04 00:39:29;;;;;;;;;;;;;;;;;;348739;28;884;-70
2022/04/04 00:39:40;;;;;;;;;;;;;;;;;;348715;28;912;-70
2022/04/04 00:39:50;;;;;;;;;;;;;;;;;;348734;28;912;-70
2022/04/04 00:40:01;;;;;;;;;;;;;;;;;;348639;28;1007;-70
2022/04/04 00:40:11;;;;;;;;;;;;;;;;;;348696;28;942;-70
2022/04/04 00:40:22;;;;;;;;;;;;;;;;;;348674;28;1055;-70
2022/04/04 00:40:32;;;;;;;;;;;;;;;;;;348580;28;1910;-70
2022/04/04 00:40:43;;;;;;;;;;;;;;;;;;348484;28;1775;-70
2022/04/04 00:40:53;;;;;;;;;;;;;;;;;;347418;28;1720;-70
2022/04/04 00:41:07;;;;;;;;;;;;;;;;;;348679;28;868;-70
2022/04/04 00:41:18;;;;;;;;;;;;;;;;;;348637;28;944;-70
2022/04/04 00:41:28;;;;;;;;;;;;;;;;;;348644;28;1752;-70
2022/04/04 00:41:38;;;;;;;;;;;;;;;;;;348654;28;889;-70
2022/04/04 00:41:48;;;;;;;;;;;;;;;;;;348723;28;782;-70
2022/04/04 00:41:59;;;;;;;;;;;;;;;;;;348693;28;948;-70
2022/04/04 00:42:09;;;;;;;;;;;;;;;;;;348642;28;928;-70
2022/04/04 00:42:19;;;;;;;;;;;;;;;;;;348675;28;921;-70
2022/04/04 00:42:30;;;;;;;;;;;;;;;;;;348719;28;912;-70
2022/04/04 00:42:40;;;;;;;;;;;;;;;;;;348562;28;1693;-70
2022/04/04 00:42:50;;;;;;;;;;;;;;;;;;348709;28;940;-70
2022/04/04 00:43:00;;;;;;;;;;;;;;;;;;348682;28;1019;-70
2022/04/04 00:43:11;;;;;;;;;;;;;;;;;;348688;28;901;-70
2022/04/04 00:43:21;;;;;;;;;;;;;;;;;;348602;28;980;-70
2022/04/04 00:43:31;;;;;;;;;;;;;;;;;;348728;28;893;-70
2022/04/04 00:43:42;;;;;;;;;;;;;;;;;;348679;28;861;-70
2022/04/04 00:43:52;;;;;;;;;;;;;;;;;;348678;28;984;-70
2022/04/04 00:44:03;;;;;;;;;;;;;;;;;;348701;28;972;-70
2022/04/04 00:44:13;;;;;;;;;;;;;;;;;;348633;28;920;-70
2022/04/04 00:44:25;;;;;;;;;;;;;;;;;;348708;28;1012;-70
2022/04/04 00:44:35;;;;;;;;;;;;;;;;;;348698;28;805;-70
2022/04/04 00:44:45;;;;;;;;;;;;;;;;;;348768;28;779;-70
2022/04/04 00:44:56;;;;;;;;;;;;;;;;;;348678;28;940;-70
2022/04/04 00:45:06;;;;;;;;;;;;;;;;;;348678;28;1023;-70
2022/04/04 00:45:16;;;;;;;;;;;;;;;;;;348672;28;873;-70
2022/04/04 00:45:27;;;;;;;;;;;;;;;;;;348639;28;920;-70
2022/04/04 00:45:37;;;;;;;;;;;;;;;;;;348686;28;904;-70
2022/04/04 00:45:48;;;;;;;;;;;;;;;;;;348723;28;869;-70
2022/04/04 00:45:59;;;;;;;;;;;;;;;;;;348646;28;1004;-70
2022/04/04 00:46:09;;;;;;;;;;;;;;;;;;348718;28;798;-70
2022/04/04 00:46:20;;;;;;;;;;;;;;;;;;348681;28;924;-70
2022/04/04 00:46:30;;;;;;;;;;;;;;;;;;348712;28;853;-70
2022/04/04 00:46:41;;;;;;;;;;;;;;;;;;348702;28;909;-70
2022/04/04 00:46:52;;;;;;;;;;;;;;;;;;347594;28;1681;-70
2022/04/04 00:47:02;;;;;;;;;;;;;;;;;;348702;28;905;-70
2022/04/04 00:47:12;;;;;;;;;;;;;;;;;;348659;28;936;-70
2022/04/04 00:47:23;;;;;;;;;;;;;;;;;;348690;28;991;-70
2022/04/04 00:47:33;;;;;;;;;;;;;;;;;;348583;28;1052;-70
2022/04/04 00:47:43;;;;;;;;;;;;;;;;;;348662;28;964;-70
2022/04/04 00:47:53;;;;;;;;;;;;;;;;;;348705;28;987;-70
2022/04/04 00:48:04;;;;;;;;;;;;;;;;;;348705;28;1242;-70
2022/04/04 00:48:14;;;;;;;;;;;;;;;;;;348677;28;785;-70
2022/04/04 00:48:24;;;;;;;;;;;;;;;;;;348699;28;925;-70
2022/04/04 00:48:35;;;;;;;;;;;;;;;;;;348656;28;932;-70
2022/04/04 00:48:45;;;;;;;;;;;;;;;;;;348695;28;877;-70
2022/04/04 00:48:55;;;;;;;;;;;;;;;;;;348718;28;838;-70
2022/04/04 00:49:05;;;;;;;;;;;;;;;;;;348673;28;940;-70
2022/04/04 00:49:15;;;;;;;;;;;;;;;;;;348661;28;856;-70
2022/04/04 00:49:26;;;;;;;;;;;;;;;;;;348687;28;782;-70
2022/04/04 00:49:36;;;;;;;;;;;;;;;;;;348612;28;960;-70
2022/04/04 00:49:48;;;;;;;;;;;;;;;;;;348655;28;1043;-70
2022/04/04 00:49:58;;;;;;;;;;;;;;;;;;348642;28;875;-70
2022/04/04 00:50:08;;;;;;;;;;;;;;;;;;348716;28;852;-70
2022/04/04 00:50:20;;;;;;;;;;;;;;;;;;348663;28;971;-70
2022/04/04 00:50:30;;;;;;;;;;;;;;;;;;348671;28;907;-70
2022/04/04 00:50:40;;;;;;;;;;;;;;;;;;348651;28;930;-70
2022/04/04 00:50:51;;;;;;;;;;;;;;;;;;348738;28;904;-70
2022/04/04 00:51:02;;;;;;;;;;;;;;;;;;348692;28;937;-70
2022/04/04 00:51:12;;;;;;;;;;;;;;;;;;348656;28;924;-70
2022/04/04 00:51:22;;;;;;;;;;;;;;;;;;348653;28;1012;-70
2022/04/04 00:51:32;;;;;;;;;;;;;;;;;;348708;28;860;-70
2022/04/04 00:51:42;;;;;;;;;;;;;;;;;;348615;28;928;-70
2022/04/04 00:51:53;;;;;;;;;;;;;;;;;;348630;28;996;-70
2022/04/04 00:52:03;;;;;;;;;;;;;;;;;;348663;28;913;-70
2022/04/04 00:52:13;;;;;;;;;;;;;;;;;;348620;28;1112;-70
2022/04/04 00:52:24;;;;;;;;;;;;;;;;;;348649;28;1000;-70
2022/04/04 00:52:34;;;;;;;;;;;;;;;;;;348370;28;1683;-70
2022/04/04 00:52:44;;;;;;;;;;;;;;;;;;348704;28;786;-70
2022/04/04 00:52:55;;;;;;;;;;;;;;;;;;348703;28;1015;-70
2022/04/04 00:53:07;;;;;;;;;;;;;;;;;;348698;28;924;-70
2022/04/04 00:53:17;;;;;;;;;;;;;;;;;;348655;28;856;-70
2022/04/04 00:53:28;;;;;;;;;;;;;;;;;;348675;28;925;-70
2022/04/04 00:53:39;;;;;;;;;;;;;;;;;;348684;28;921;-70
2022/04/04 00:53:49;;;;;;;;;;;;;;;;;;348581;28;1015;-70
2022/04/04 00:54:00;;;;;;;;;;;;;;;;;;348534;28;1691;-70
2022/04/04 00:54:10;;;;;;;;;;;;;;;;;;348670;28;1040;-70
2022/04/04 00:54:21;;;;;;;;;;;;;;;;;;348694;28;988;-70
2022/04/04 00:54:32;;;;;;;;;;;;;;;;;;348683;28;798;-70
2022/04/04 00:54:42;;;;;;;;;;;;;;;;;;348684;28;1003;-70
2022/04/04 00:54:52;;;;;;;;;;;;;;;;;;348686;28;1012;-70
2022/04/04 00:55:03;;;;;;;;;;;;;;;;;;348663;28;885;-70
2022/04/04 00:55:13;;;;;;;;;;;;;;;;;;348672;28;923;-70
2022/04/04 00:55:24;;;;;;;;;;;;;;;;;;348703;28;770;-70
2022/04/04 00:55:34;;;;;;;;;;;;;;;;;;348508;28;1149;-70
2022/04/04 00:55:44;;;;;;;;;;;;;;;;;;348681;28;989;-70
2022/04/04 00:55:55;;;;;;;;;;;;;;;;;;348672;28;833;-70
2022/04/04 00:56:07;;;;;;;;;;;;;;;;;;348629;28;949;-70
2022/04/04 00:56:17;;;;;;;;;;;;;;;;;;348681;28;802;-70
2022/04/04 00:56:27;;;;;;;;;;;;;;;;;;348656;28;996;-70
2022/04/04 00:56:38;;;;;;;;;;;;;;;;;;348669;28;930;-70
2022/04/04 00:56:49;;;;;;;;;;;;;;;;;;348679;28;1033;-70
2022/04/04 00:57:02;;;;;;;;;;;;;;;;;;348287;28;1535;-70
2022/04/04 00:57:13;;;;;;;;;;;;;;;;;;348607;28;932;-70
2022/04/04 00:57:24;;;;;;;;;;;;;;;;;;348659;28;1036;-70
2022/04/04 00:57:35;;;;;;;;;;;;;;;;;;348671;28;920;-70
2022/04/04 00:57:46;;;;;;;;;;;;;;;;;;348684;28;932;-70
2022/04/04 00:57:56;;;;;;;;;;;;;;;;;;348650;28;916;-70
2022/04/04 00:58:06;;;;;;;;;;;;;;;;;;348608;28;959;-70
2022/04/04 00:58:18;;;;;;;;;;;;;;;;;;348612;28;1324;-70
2022/04/04 00:58:30;;;;;;;;;;;;;;;;;;348670;28;857;-70
2022/04/04 00:58:40;;;;;;;;;;;;;;;;;;348646;28;960;-70
2022/04/04 00:58:50;;;;;;;;;;;;;;;;;;348684;28;908;-70
2022/04/04 00:59:02;;;;;;;;;;;;;;;;;;348752;28;794;-70
2022/04/04 00:59:15;;;;;;;;;;;;;;;;;;348644;28;995;-70
2022/04/04 00:59:26;;;;;;;;;;;;;;;;;;348677;28;941;-70
2022/04/04 00:59:36;;;;;;;;;;;;;;;;;;348674;28;983;-70
2022/04/04 00:59:47;;;;;;;;;;;;;;;;;;348681;28;929;-71
2022/04/04 00:59:57;;;;;;;;;;;;;;;;;;348691;28;928;-70
2022/04/04 01:00:09;;;;;;;;;;;;;;;;;;348596;28;995;-70
2022/04/04 01:00:20;;;;;;;;;;;;;;;;;;348652;28;940;-70
2022/04/04 01:00:31;;;;;;;;;;;;;;;;;;348579;28;1906;-70
2022/04/04 01:00:43;;;;;;;;;;;;;;;;;;348712;28;925;-70
2022/04/04 01:00:54;;;;;;;;;;;;;;;;;;348654;28;979;-71
2022/04/04 01:01:05;;;;;;;;;;;;;;;;;;348589;28;1157;-70
2022/04/04 01:01:15;;;;;;;;;;;;;;;;;;348691;28;871;-71
2022/04/04 01:01:25;;;;;;;;;;;;;;;;;;348707;28;964;-70
2022/04/04 01:01:36;;;;;;;;;;;;;;;;;;348651;28;853;-70
2022/04/04 01:01:46;;;;;;;;;;;;;;;;;;348687;28;956;-70
2022/04/04 01:01:56;;;;;;;;;;;;;;;;;;348633;28;901;-70
2022/04/04 01:02:07;;;;;;;;;;;;;;;;;;348623;28;913;-70
2022/04/04 01:02:17;;;;;;;;;;;;;;;;;;348722;28;1012;-70
2022/04/04 01:02:27;;;;;;;;;;;;;;;;;;348642;28;785;-70
2022/04/04 01:02:38;;;;;;;;;;;;;;;;;;348685;28;913;-70
2022/04/04 01:02:48;;;;;;;;;;;;;;;;;;348622;28;921;-70
2022/04/04 01:02:58;;;;;;;;;;;;;;;;;;348644;28;905;-70
2022/04/04 01:03:08;;;;;;;;;;;;;;;;;;348670;28;1173;-70
2022/04/04 01:03:18;;;;;;;;;;;;;;;;;;348690;28;830;-70
2022/04/04 01:03:29;;;;;;;;;;;;;;;;;;348662;28;932;-70
2022/04/04 01:03:39;;;;;;;;;;;;;;;;;;348584;28;936;-70
2022/04/04 01:03:50;;;;;;;;;;;;;;;;;;348664;28;921;-70
2022/04/04 01:04:01;;;;;;;;;;;;;;;;;;348644;28;901;-70
2022/04/04 01:04:12;;;;;;;;;;;;;;;;;;348608;28;940;-70
2022/04/04 01:04:23;;;;;;;;;;;;;;;;;;348681;28;936;-70
2022/04/04 01:04:33;;;;;;;;;;;;;;;;;;348565;28;985;-70
2022/04/04 01:04:44;;;;;;;;;;;;;;;;;;348665;28;921;-70
2022/04/04 01:04:54;;;;;;;;;;;;;;;;;;348715;28;790;-70
2022/04/04 01:05:05;;;;;;;;;;;;;;;;;;348686;28;944;-70
2022/04/04 01:05:15;;;;;;;;;;;;;;;;;;348721;28;972;-70
2022/04/04 01:05:25;;;;;;;;;;;;;;;;;;348626;28;944;-70
2022/04/04 01:05:36;;;;;;;;;;;;;;;;;;348638;28;845;-70
2022/04/04 01:05:46;;;;;;;;;;;;;;;;;;348665;28;940;-70
2022/04/04 01:05:58;;;;;;;;;;;;;;;;;;348730;28;786;-70
2022/04/04 01:06:08;;;;;;;;;;;;;;;;;;348638;28;1004;-70
2022/04/04 01:06:18;;;;;;;;;;;;;;;;;;348609;28;830;-70
2022/04/04 01:06:29;;;;;;;;;;;;;;;;;;348668;28;1012;-70
2022/04/04 01:06:40;;;;;;;;;;;;;;;;;;348638;28;995;-70
2022/04/04 01:06:50;;;;;;;;;;;;;;;;;;348673;28;877;-70
2022/04/04 01:07:01;;;;;;;;;;;;;;;;;;348297;28;1648;-70
2022/04/04 01:07:11;;;;;;;;;;;;;;;;;;348649;28;842;-70
2022/04/04 01:07:21;;;;;;;;;;;;;;;;;;348522;28;1584;-70
2022/04/04 01:07:32;;;;;;;;;;;;;;;;;;348697;28;841;-70
2022/04/04 01:07:42;;;;;;;;;;;;;;;;;;348641;28;929;-70
2022/04/04 01:07:52;;;;;;;;;;;;;;;;;;348614;28;1151;-70
2022/04/04 01:08:03;;;;;;;;;;;;;;;;;;348590;28;1081;-70
2022/04/04 01:08:13;;;;;;;;;;;;;;;;;;348639;28;1011;-70
2022/04/04 01:08:24;;;;;;;;;;;;;;;;;;348603;28;936;-70
2022/04/04 01:08:34;;;;;;;;;;;;;;;;;;348715;28;857;-70
2022/04/04 01:08:47;;;;;;;;;;;;;;;;;;348556;28;985;-70
2022/04/04 01:08:57;;;;;;;;;;;;;;;;;;348604;28;909;-70
2022/04/04 01:09:07;;;;;;;;;;;;;;;;;;348666;28;957;-70
2022/04/04 01:09:18;;;;;;;;;;;;;;;;;;348685;28;830;-70
2022/04/04 01:09:28;;;;;;;;;;;;;;;;;;348686;28;860;-70
2022/04/04 01:09:38;;;;;;;;;;;;;;;;;;348685;28;929;-70
2022/04/04 01:09:50;;;;;;;;;;;;;;;;;;348649;28;982;-70
2022/04/04 01:10:00;;;;;;;;;;;;;;;;;;348675;28;913;-70
2022/04/04 01:10:10;;;;;;;;;;;;;;;;;;348664;28;905;-70
2022/04/04 01:10:20;;;;;;;;;;;;;;;;;;348649;28;975;-70
2022/04/04 01:10:31;;;;;;;;;;;;;;;;;;348636;28;871;-70
2022/04/04 01:10:42;;;;;;;;;;;;;;;;;;348585;28;1019;-70
2022/04/04 01:10:52;;;;;;;;;;;;;;;;;;348674;28;928;-70
2022/04/04 01:11:03;;;;;;;;;;;;;;;;;;348642;28;933;-70
2022/04/04 01:11:13;;;;;;;;;;;;;;;;;;348600;28;996;-70
2022/04/04 01:11:23;;;;;;;;;;;;;;;;;;348689;28;794;-70
2022/04/04 01:11:34;;;;;;;;;;;;;;;;;;348731;28;972;-70
2022/04/04 01:12:05;;;;;;;;;;;;;;;;;;348596;28;1043;-70
2022/04/04 01:12:15;;;;;;;;;;;;;;;;;;348674;28;920;-70
2022/04/04 01:12:26;;;;;;;;;;;;;;;;;;348689;28;805;-70
2022/04/04 01:12:36;;;;;;;;;;;;;;;;;;348615;28;975;-71
2022/04/04 01:12:51;;;;;;;;;;;;;;;;;;348581;28;945;-70
2022/04/04 01:13:01;;;;;;;;;;;;;;;;;;347252;28;1035;-70
2022/04/04 01:13:12;;;;;;;;;;;;;;;;;;347271;28;861;-70
2022/04/04 01:13:22;;;;;;;;;;;;;;;;;;347209;28;972;-70
2022/04/04 01:13:32;;;;;;;;;;;;;;;;;;347288;28;975;-70
2022/04/04 01:13:46;;;;;;;;;;;;;;;;;;347316;28;1810;-70
2022/04/04 01:13:56;;;;;;;;;;;;;;;;;;347230;28;956;-70
2022/04/04 01:14:06;;;;;;;;;;;;;;;;;;347293;28;945;-70
2022/04/04 01:14:16;;;;;;;;;;;;;;;;;;347278;28;913;-70
2022/04/04 01:14:26;;;;;;;;;;;;;;;;;;347458;28;1749;-70
2022/04/04 01:14:46;;;;;;;;;;;;;;;;;;348493;28;1827;-70
2022/04/04 01:14:56;;;;;;;;;;;;;;;;;;348685;28;878;-70
2022/04/04 01:15:06;;;;;;;;;;;;;;;;;;348665;28;949;-70
2022/04/04 01:15:17;;;;;;;;;;;;;;;;;;348645;28;1014;-70
2022/04/04 01:15:32;;;;;;;;;;;;;;;;;;348644;28;921;-70
2022/04/04 01:15:42;;;;;;;;;;;;;;;;;;348373;28;1756;-70
2022/04/04 01:15:52;;;;;;;;;;;;;;;;;;348482;28;1745;-70